createdAt,value
2022-12-08T08:21:48.941Z,95.10
2022-12-08T08:24:16.240Z,95.70
2022-12-08T08:26:43.155Z,96.10
2022-12-08T08:29:10.041Z,96.90
2022-12-08T08:31:36.904Z,96.10
2022-12-08T08:34:06.373Z,96.20
2022-12-08T08:36:33.563Z,95.00
2022-12-08T08:39:00.339Z,94.90
2022-12-08T08:41:27.177Z,98.40
2022-12-08T08:43:55.320Z,99.90
2022-12-08T08:46:22.252Z,99.90
2022-12-08T08:48:49.133Z,99.90
2022-12-08T08:51:16.110Z,99.90
2022-12-08T08:53:43.518Z,99.90
2022-12-08T08:56:15.982Z,99.60
2022-12-08T08:58:42.798Z,98.50
2022-12-08T09:01:14.426Z,96.40
2022-12-08T09:03:41.332Z,95.90
2022-12-08T09:06:10.565Z,96.20
2022-12-08T09:08:37.374Z,95.90
2022-12-08T09:11:04.365Z,96.50
2022-12-08T09:13:31.208Z,96.50
2022-12-08T09:15:58.236Z,96.30
2022-12-08T09:18:25.223Z,96.60
2022-12-08T09:20:52.107Z,97.10
2022-12-08T09:23:19.046Z,96.60
2022-12-08T09:25:46.121Z,96.80
2022-12-08T09:28:13.914Z,96.70
2022-12-08T09:30:41.276Z,97.70
2022-12-08T09:33:08.197Z,98.10
2022-12-08T09:35:35.059Z,96.30
2022-12-08T09:38:01.903Z,95.80
2022-12-08T09:40:32.743Z,95.70
2022-12-08T09:43:08.638Z,96.90
2022-12-08T09:45:36.532Z,96.70
2022-12-08T09:48:18.315Z,98.10
2022-12-08T09:50:58.989Z,96.70
2022-12-08T09:53:32.076Z,96.80
2022-12-08T09:56:11.427Z,96.60
2022-12-08T09:58:59.186Z,96.90
2022-12-08T10:01:44.232Z,97.30
2022-12-08T10:04:32.455Z,96.50
2022-12-08T10:07:22.582Z,96.10
2022-12-08T10:10:14.556Z,96.30
2022-12-08T10:12:55.072Z,96.40
2022-12-08T10:15:44.204Z,97.50
2022-12-08T10:18:16.922Z,96.80
2022-12-08T10:20:46.114Z,97.40
2022-12-08T10:23:12.899Z,97.30
2022-12-08T10:25:45.694Z,97.20
2022-12-08T10:28:12.884Z,96.80
2022-12-08T10:30:43.095Z,97.50
2022-12-08T10:33:17.884Z,96.20
2022-12-08T10:35:50.855Z,96.00
2022-12-08T10:38:32.811Z,96.10
2022-12-08T10:41:10.985Z,95.70
2022-12-08T10:43:44.491Z,95.60
2022-12-08T10:46:26.047Z,95.60
2022-12-08T10:48:57.873Z,95.60
2022-12-08T10:51:33.918Z,95.40
2022-12-08T10:54:01.133Z,95.20
2022-12-08T10:56:30.330Z,95.50
2022-12-08T10:59:18.560Z,95.60
2022-12-08T11:01:51.226Z,96.10
2022-12-08T11:04:35.168Z,95.20
2022-12-08T11:07:04.691Z,95.50
2022-12-08T11:09:41.226Z,94.90
2022-12-08T11:12:15.859Z,95.50
2022-12-08T11:14:42.662Z,95.60
2022-12-08T11:17:13.229Z,94.90
2022-12-08T11:19:45.978Z,94.40
2022-12-08T11:22:31.055Z,94.60
2022-12-08T11:25:22.467Z,95.30
2022-12-08T11:27:52.995Z,95.70
2022-12-08T11:30:22.786Z,95.20
2022-12-08T11:33:03.436Z,95.10
2022-12-08T11:35:38.698Z,98.50
2022-12-08T11:38:29.935Z,99.30
2022-12-08T11:41:21.101Z,99.80
2022-12-08T11:44:21.957Z,98.00
2022-12-08T11:47:13.217Z,95.00
2022-12-08T11:49:42.611Z,94.30
2022-12-08T11:52:28.098Z,93.70
2022-12-08T11:54:59.927Z,93.80
2022-12-08T11:57:28.592Z,94.90
2022-12-08T11:59:58.112Z,95.30
2022-12-08T12:02:28.994Z,94.70
2022-12-08T12:05:02.782Z,95.00
2022-12-08T12:08:05.552Z,95.70
2022-12-08T12:10:32.322Z,94.90
2022-12-08T12:13:30.238Z,94.60
2022-12-08T12:16:19.918Z,94.30
2022-12-08T12:19:14.577Z,94.40
2022-12-08T12:21:45.489Z,94.10
2022-12-08T12:24:26.699Z,94.70
2022-12-08T12:27:05.107Z,94.40
2022-12-08T12:29:35.370Z,93.90
2022-12-08T12:32:08.643Z,93.80
2022-12-08T12:34:44.079Z,93.30
2022-12-08T12:37:16.607Z,93.40
2022-12-08T12:39:52.586Z,93.60
2022-12-08T12:43:06.037Z,93.30
2022-12-08T12:45:34.818Z,93.70
2022-12-08T12:48:01.588Z,93.50
2022-12-08T12:50:34.673Z,93.80
2022-12-08T12:53:12.305Z,93.80
2022-12-08T12:55:57.187Z,93.70
2022-12-08T12:58:36.614Z,93.50
2022-12-08T13:01:12.792Z,93.60
2022-12-08T13:03:41.527Z,93.80
2022-12-08T13:06:14.643Z,93.70
2022-12-08T13:08:51.860Z,94.00
2022-12-08T13:11:19.148Z,93.90
2022-12-08T13:14:06.359Z,93.70
2022-12-08T13:16:37.268Z,93.20
2022-12-08T13:19:12.938Z,93.70
2022-12-08T13:21:40.581Z,93.90
2022-12-08T13:24:10.486Z,94.10
2022-12-08T13:27:11.268Z,93.90
2022-12-08T13:29:39.442Z,93.60
2022-12-08T13:32:09.826Z,93.50
2022-12-08T13:34:42.097Z,93.90
2022-12-08T13:37:12.052Z,93.70
2022-12-08T13:40:28.189Z,94.00
2022-12-08T13:43:18.901Z,94.10
2022-12-08T13:46:52.579Z,94.40
2022-12-08T13:55:26.815Z,94.10
2022-12-08T13:57:36.052Z,94.10
2022-12-08T14:00:16.448Z,94.10
2022-12-08T14:02:51.284Z,94.20
2022-12-08T14:05:34.660Z,94.10
2022-12-08T14:08:58.346Z,94.00
2022-12-08T14:11:33.669Z,93.90
2022-12-08T14:14:07.499Z,94.00
2022-12-08T14:16:42.922Z,94.10
2022-12-08T14:19:20.215Z,94.00
2022-12-08T14:21:51.183Z,94.00
2022-12-08T14:24:18.032Z,94.30
2022-12-08T14:26:48.515Z,94.40
2022-12-08T14:29:36.007Z,94.70
2022-12-08T14:32:02.915Z,94.60
2022-12-08T14:34:29.751Z,94.70
2022-12-08T14:36:56.644Z,94.70
2022-12-08T14:39:23.762Z,94.70
2022-12-08T14:42:00.995Z,94.50
2022-12-08T14:44:32.974Z,94.60
2022-12-08T14:47:10.516Z,94.70
2022-12-08T14:49:40.148Z,95.00
2022-12-08T14:52:13.114Z,95.00
2022-12-08T14:54:40.851Z,94.90
2022-12-08T14:57:10.443Z,95.00
2022-12-08T14:59:39.175Z,95.20
2022-12-08T15:02:19.344Z,95.10
2022-12-08T15:04:48.529Z,95.10
2022-12-08T15:07:18.962Z,95.10
2022-12-08T15:09:48.992Z,95.00
2022-12-08T15:12:26.173Z,95.20
2022-12-08T15:15:01.817Z,95.10
2022-12-08T15:17:42.071Z,95.10
2022-12-08T15:20:35.634Z,95.20
2022-12-08T15:23:02.945Z,95.30
2022-12-08T15:25:29.848Z,95.30
2022-12-08T15:27:57.995Z,95.40
2022-12-08T15:30:28.825Z,95.60
2022-12-08T15:32:56.272Z,97.30
2022-12-08T15:35:23.833Z,95.90
2022-12-08T15:37:50.721Z,95.90
2022-12-08T15:40:20.244Z,95.90
2022-12-08T15:42:47.444Z,95.70
2022-12-08T15:45:15.378Z,95.70
2022-12-08T15:47:43.401Z,96.10
2022-12-08T15:50:21.835Z,96.00
2022-12-08T15:52:50.077Z,95.90
2022-12-08T15:55:19.195Z,96.20
2022-12-08T16:00:52.329Z,96.00
2022-12-08T16:09:25.190Z,96.10
2022-12-08T16:12:10.841Z,96.50
2022-12-08T16:17:26.875Z,96.20
2022-12-08T16:19:54.392Z,96.20
2022-12-08T16:22:54.178Z,95.80
2022-12-08T16:25:19.455Z,95.60
2022-12-08T16:30:36.470Z,96.20
2022-12-08T16:33:03.505Z,95.40
2022-12-08T16:35:31.366Z,95.60
2022-12-08T16:37:58.275Z,95.80
2022-12-08T16:40:25.325Z,96.20
2022-12-08T16:42:52.206Z,95.90
2022-12-08T16:45:22.551Z,96.50
2022-12-08T16:47:53.746Z,96.20
2022-12-08T16:50:22.087Z,96.00
2022-12-08T16:52:49.767Z,96.40
2022-12-08T16:55:19.008Z,96.20
2022-12-08T16:57:47.454Z,96.30
2022-12-08T17:00:18.292Z,95.90
2022-12-08T17:02:45.224Z,95.80
2022-12-08T17:05:17.479Z,95.70
2022-12-08T17:07:46.476Z,95.20
2022-12-08T17:10:16.751Z,95.60
2022-12-08T17:12:44.410Z,95.70
2022-12-08T17:15:15.471Z,95.90
2022-12-08T17:17:42.649Z,95.70
2022-12-08T17:20:13.808Z,95.60
2022-12-08T17:22:43.794Z,95.60
2022-12-08T17:25:11.092Z,95.40
2022-12-08T17:27:39.196Z,95.30
2022-12-08T17:30:07.750Z,95.50
2022-12-08T17:32:34.924Z,95.30
2022-12-08T17:35:01.995Z,95.70
2022-12-08T17:37:29.164Z,95.70
2022-12-08T17:39:56.435Z,95.50
2022-12-08T17:42:26.026Z,96.00
2022-12-08T17:44:54.182Z,95.80
2022-12-08T17:47:21.463Z,95.80
2022-12-08T17:49:48.510Z,95.90
2022-12-08T17:52:15.504Z,95.80
2022-12-08T17:54:42.407Z,95.50
2022-12-08T17:57:09.346Z,95.40
2022-12-08T17:59:36.442Z,95.40
2022-12-08T18:02:04.411Z,95.30
2022-12-08T18:04:31.451Z,95.50
2022-12-08T18:07:00.287Z,95.60
2022-12-08T18:09:27.330Z,95.60
2022-12-08T18:11:54.201Z,95.90
2022-12-08T18:14:21.105Z,96.50
2022-12-08T18:16:49.354Z,96.30
2022-12-08T18:19:16.847Z,95.30
2022-12-08T18:21:44.132Z,95.30
2022-12-08T18:24:19.009Z,95.00
2022-12-08T18:26:46.390Z,94.60
2022-12-08T18:29:13.203Z,95.10
2022-12-08T18:31:40.037Z,95.70
2022-12-08T18:34:09.634Z,96.20
2022-12-08T18:36:36.506Z,95.60
2022-12-08T18:39:08.779Z,95.20
2022-12-08T18:41:37.561Z,95.20
2022-12-08T18:44:04.703Z,95.00
2022-12-08T18:46:34.506Z,95.10
2022-12-08T18:49:01.426Z,99.90
2022-12-08T18:51:28.395Z,97.40
2022-12-08T18:53:55.258Z,95.30
2022-12-08T18:56:30.559Z,95.00
2022-12-08T18:59:03.290Z,94.80
2022-12-08T19:01:38.382Z,95.00
2022-12-08T19:06:57.199Z,94.90
2022-12-08T19:09:26.672Z,94.90
2022-12-08T19:11:54.045Z,94.80
2022-12-08T19:14:27.829Z,94.70
2022-12-08T19:16:54.983Z,94.90
2022-12-08T19:19:21.806Z,94.70
2022-12-08T19:21:48.713Z,94.40
2022-12-08T19:24:15.528Z,94.60
2022-12-08T19:26:42.705Z,94.80
2022-12-08T19:29:10.181Z,95.40
2022-12-08T19:31:37.355Z,94.80
2022-12-08T19:34:06.175Z,94.60
2022-12-08T19:36:35.666Z,94.40
2022-12-08T19:39:22.587Z,94.20
2022-12-08T19:42:09.170Z,94.10
2022-12-08T19:44:54.294Z,93.80
2022-12-08T19:47:23.696Z,93.70
2022-12-08T19:49:51.136Z,94.00
2022-12-08T19:52:18.723Z,93.80
2022-12-08T19:54:45.774Z,94.20
2022-12-08T19:57:13.149Z,94.10
2022-12-08T19:59:40.073Z,94.30
2022-12-08T20:02:07.496Z,94.80
2022-12-08T20:04:34.430Z,94.50
2022-12-08T20:07:01.320Z,94.60
2022-12-08T20:09:28.169Z,94.70
2022-12-08T20:11:55.084Z,95.00
2022-12-08T20:14:23.312Z,95.80
2022-12-08T20:16:50.741Z,95.10
2022-12-08T20:19:17.839Z,95.30
2022-12-08T20:21:44.797Z,94.70
2022-12-08T20:24:11.834Z,94.80
2022-12-08T20:26:38.770Z,95.20
2022-12-08T20:29:05.682Z,94.40
2022-12-08T20:31:33.677Z,94.50
2022-12-08T20:34:01.751Z,94.60
2022-12-08T20:36:29.161Z,94.20
2022-12-08T20:38:56.362Z,94.10
2022-12-08T20:41:23.700Z,93.90
2022-12-08T20:43:51.868Z,94.00
2022-12-08T20:46:20.396Z,93.80
2022-12-08T20:48:48.775Z,94.20
2022-12-08T20:51:20.026Z,94.60
2022-12-08T20:53:47.157Z,94.40
2022-12-08T20:56:19.730Z,94.10
2022-12-08T20:58:47.363Z,93.80
2022-12-08T21:01:17.615Z,94.00
2022-12-08T21:03:45.363Z,94.20
2022-12-08T21:06:13.409Z,94.40
2022-12-08T21:08:43.868Z,94.20
2022-12-08T21:11:10.950Z,94.30
2022-12-08T21:13:38.595Z,94.70
2022-12-08T21:16:06.398Z,94.60
2022-12-08T21:18:39.113Z,94.40
2022-12-08T21:21:09.727Z,94.30
2022-12-08T21:23:36.611Z,94.60
2022-12-08T21:26:09.623Z,94.80
2022-12-08T21:28:36.754Z,94.60
2022-12-08T21:31:07.838Z,94.40
2022-12-08T21:33:35.082Z,94.40
2022-12-08T21:36:09.458Z,94.20
2022-12-08T21:38:38.517Z,94.10
2022-12-08T21:41:08.325Z,94.00
2022-12-08T21:43:35.502Z,94.20
2022-12-08T21:46:02.710Z,94.20
2022-12-08T21:48:29.659Z,94.00
